Lansing, MI

7:57 PM EDT on September 02, 2015 (GMT -0400)
Shaw Estates | | Change Station
CLOSE
Current Station
Personal Weather Station
Location: East Lansing, MI
Elevation: 869 ft
Nearby Weather Stations

Elev 869 ft 42.73 °N, 84.54 °W | Updated 36 seconds ago

Clear
Clear
82.9 °F
Feels Like 86 °F
N
0.0
Wind Variable Wind from South
Gusts 8.0 mph

Today
High -- | Low -- °F
--% Chance of Precip.
Yesterday
High -- | Low -- °F
Precip. -- in
7:03 AM 8:11 PM
Waning Gibbous, 76% visible
Pressure 29.97 in
Visibility 7.0 miles
Clouds Few 10000 ft
Heat Index 86 °F
Dew Point 68 °F
Humidity 61%
Rainfall 0.00 in
Snow Depth Not available.
UV 0 out of 12
Pollen 10.10 out of 12
Air Quality Not available.
Flu Activity Not available.
METAR KLAN 022353Z 26005KT 7SM FEW100 27/22 A2998 RMK AO2 SLP147 T02720217 10317 20272 55001
Pressure 29.97 in
Visibility 7.0 miles
Clouds Few 10000 ft
Heat Index 86 °F
Dew Point 68 °F
Humidity 61%
Rainfall 0.00 in
Snow Depth Not available.
UV 0 out of 12
Pollen 10.10 out of 12
Air Quality Not available.
Flu Activity Not available.
METAR KLAN 022353Z 26005KT 7SM FEW100 27/22 A2998 RMK AO2 SLP147 T02720217 10317 20272 55001

10-Day Weather Forecast

×

Almanac

Astronomy

Sep. 02, 2015 Rise Set
Actual Time
Civil Twilight
Nautical Twilight
Astronomical Twilight
Moon
Length of Visible Light
Length of Day
Tomorrow will be .
, % of the Moon is Illuminated

Today's Extremes

State Highs State Lows

Community

WunderPhotos

Upload Photos

1,851,841 photos uploaded!

WunderBlogs® & News

Nearby

Air Quality

  Air Quality AQ Index Pollutant
Not available.

Snow Depth

Station Depth Elevation

Earthquake Activity

City Distance Mag. Time & Date
Minimum magnitude displayed is 2.5.

Coastal Water Temperatures

Place Temperature

Stations

Nearby Weather Stations

Station Location Temp. Windchill Dew Point Humidity Wind Precip. Elev Updated Type